Time;durP1;ratioP1;P1;durP2;ratioP2;P2;SDS_P1;SDS_P2;PMS_P1;PMS_P2;Temp;Humidity;BMP_temperature;BMP_pressure;BME280_temperature;BME280_humidity;BME280_pressure;Samples;Min_cycle;Max_cycle;Signal;HPM_P1;HPM_P2
2022/02/01 00:00:31;;;;;;;;;;;8.50;67.20;;;;;;20751561;28;20042;-82
2022/02/01 00:10:47;;;;;;;5.70;2.67;;;8.60;67.20;;;;;;20750886;28;19932;-82
2022/02/01 00:41:11;;;;;;;3.35;2.40;;;8.50;67.20;;;;;;20734934;28;20127;-81
2022/02/01 00:51:12;;;;;;;7.43;2.53;;;8.50;67.20;;;;;;20730463;28;20129;-82
2022/02/01 01:01:13;;;;;;;4.88;2.08;;;8.50;67.20;;;;;;20765100;28;20084;-82
2022/02/01 01:11:14;;;;;;;3.90;2.33;;;8.50;67.20;;;;;;20747226;28;20357;-82
2022/02/01 02:02:33;;;;;;;8.35;2.78;;;8.50;67.10;;;;;;20759674;28;20034;-81
2022/02/01 02:12:54;;;;;;;7.45;3.13;;;8.50;67.10;;;;;;20742199;28;20037;-81
2022/02/01 02:22:54;;;;;;;8.90;3.30;;;8.50;67.10;;;;;;20730395;28;20219;-81
2022/02/01 02:33:01;;;;;;;5.40;2.60;;;8.50;67.20;;;;;;20723362;28;20101;-82
2022/02/01 02:53:20;;;;;;;5.63;3.45;;;8.50;67.20;;;;;;20742119;28;20029;-82
2022/02/01 03:03:21;;;;;;;5.57;2.97;;;8.50;67.20;;;;;;20722304;28;20048;-82
2022/02/01 03:13:27;;;;;;;9.60;4.32;;;8.50;67.20;;;;;;20753566;28;20428;-82
2022/02/01 03:23:27;;;;;;;5.70;3.25;;;8.50;67.30;;;;;;20722320;28;20046;-81
2022/02/01 03:33:29;;;;;;;4.78;2.47;;;8.50;67.30;;;;;;20721928;28;20092;-82
2022/02/01 03:43:36;;;;;;;6.97;2.60;;;8.40;67.20;;;;;;21187023;27;20400;-81
2022/02/01 03:53:37;;;;;;;3.65;1.77;;;8.50;67.30;;;;;;21152652;28;20074;-82
2022/02/01 04:03:37;;;;;;;4.63;2.28;;;8.50;67.30;;;;;;21135555;28;20109;-81
2022/02/01 04:13:38;;;;;;;7.95;2.17;;;8.40;67.60;;;;;;21116984;28;20106;-81
2022/02/01 04:23:39;;;;;;;3.70;1.98;;;8.40;67.30;;;;;;21132533;28;20028;-81
2022/02/01 04:33:39;;;;;;;5.03;1.85;;;8.40;67.30;;;;;;21133104;28;20047;-81
2022/02/01 04:43:40;;;;;;;5.27;1.63;;;8.40;67.30;;;;;;21148995;28;20475;-82
2022/02/01 04:53:41;;;;;;;7.85;1.77;;;8.40;67.30;;;;;;21099333;28;20320;-81
2022/02/01 05:03:41;;;;;;;3.55;1.25;;;8.40;67.30;;;;;;21057375;28;20101;-81
2022/02/01 05:23:57;;;;;;;5.10;2.35;;;8.50;67.30;;;;;;21091488;28;20036;-82
2022/02/01 05:33:58;;;;;;;6.43;1.70;;;8.60;66.90;;;;;;21071113;28;20048;-82
2022/02/01 05:43:58;;;;;;;3.20;1.05;;;8.90;66.20;;;;;;21054464;28;20059;-82
2022/02/01 05:53:59;;;;;;;3.53;1.25;;;9.30;65.50;;;;;;21086593;28;20363;-82
2022/02/01 06:04:03;;;;;;;2.45;0.98;;;9.50;64.60;;;;;;21084837;28;20054;-83
2022/02/01 06:14:04;;;;;;;2.47;0.88;;;9.60;63.90;;;;;;21084433;28;20036;-80
2022/02/01 06:24:07;;;;;;;2.90;1.10;;;9.70;63.40;;;;;;21050115;28;20028;-80
2022/02/01 06:34:08;;;;;;;5.00;1.02;;;9.60;63.40;;;;;;21043309;28;20040;-80
2022/02/01 06:44:08;;;;;;;3.58;1.20;;;9.40;63.70;;;;;;20984584;28;20046;-81
2022/02/01 06:54:09;;;;;;;4.18;1.20;;;9.20;64.10;;;;;;20949576;28;20363;-79
2022/02/01 07:04:10;;;;;;;3.63;1.55;;;9.00;64.40;;;;;;21020857;28;20294;-77
2022/02/01 07:14:10;;;;;;;3.42;0.80;;;8.90;64.80;;;;;;20985479;28;20036;-82
2022/02/01 07:24:16;;;;;;;2.80;1.00;;;8.80;65.10;;;;;;20974686;28;20792;-79
2022/02/01 07:34:17;;;;;;;5.35;1.33;;;8.80;65.40;;;;;;20954497;28;20489;-78
2022/02/01 07:44:17;;;;;;;3.88;1.02;;;8.70;65.50;;;;;;21056570;28;20032;-79
2022/02/01 07:54:18;;;;;;;6.28;1.08;;;8.60;65.70;;;;;;21037692;28;20036;-78
2022/02/01 08:04:18;;;;;;;3.13;0.93;;;8.60;65.90;;;;;;21013359;28;20102;-78
2022/02/01 08:24:28;;;;;;;1.45;0.70;;;8.50;66.00;;;;;;20992632;28;20274;-78
2022/02/01 08:34:29;;;;;;;5.68;1.10;;;8.50;66.20;;;;;;21050715;28;20114;-78
2022/02/01 08:44:30;;;;;;;2.15;0.80;;;8.50;66.30;;;;;;21017351;28;20032;-78
2022/02/01 08:54:33;;;;;;;8.48;1.15;;;8.50;66.50;;;;;;21075473;28;20032;-77
2022/02/01 09:04:34;;;;;;;6.70;0.93;;;8.40;66.50;;;;;;21024979;28;20024;-76
2022/02/01 09:14:35;;;;;;;5.15;1.85;;;8.50;66.70;;;;;;21058983;28;20036;-77
2022/02/01 09:24:36;;;;;;;4.75;1.15;;;8.40;66.70;;;;;;21043252;28;20036;-76
2022/02/01 09:34:36;;;;;;;4.82;0.82;;;8.40;66.80;;;;;;21051701;28;20036;-79
2022/02/01 09:44:37;;;;;;;5.80;1.13;;;8.40;66.90;;;;;;21046343;28;20040;-75
2022/02/01 09:54:38;;;;;;;4.82;0.82;;;8.40;67.00;;;;;;21007606;28;20033;-75
2022/02/01 10:04:38;;;;;;;3.45;1.02;;;8.40;67.10;;;;;;20999784;28;20032;-75
2022/02/01 10:14:41;;;;;;;2.75;0.70;;;8.40;67.10;;;;;;20944395;28;20089;-75
2022/02/01 10:24:42;;;;;;;4.32;0.60;;;8.40;67.10;;;;;;20975725;28;20112;-76
2022/02/01 10:34:45;;;;;;;6.15;1.30;;;8.40;67.10;;;;;;20998665;28;20270;-78
2022/02/01 10:44:46;;;;;;;7.07;1.35;;;8.40;67.10;;;;;;21032379;28;20398;-80
2022/02/01 10:54:47;;;;;;;5.85;0.90;;;8.40;67.10;;;;;;21054445;28;20047;-79
2022/02/01 11:04:48;;;;;;;11.43;1.67;;;8.40;67.10;;;;;;21041694;28;20119;-78
2022/02/01 11:14:48;;;;;;;4.68;1.15;;;8.40;67.10;;;;;;21025391;28;20036;-78
2022/02/01 11:24:58;;;;;;;6.63;0.80;;;8.50;67.20;;;;;;21032101;28;20032;-82
2022/02/01 11:35:07;;;;;;;2.60;0.70;;;8.70;66.80;;;;;;20975003;28;20327;-79
2022/02/01 11:45:08;;;;;;;4.32;0.95;;;9.00;66.30;;;;;;20988273;28;20467;-78
2022/02/01 11:55:08;;;;;;;5.47;1.27;;;9.30;65.50;;;;;;21271857;22;20131;-77
2022/02/01 12:05:13;;;;;;;2.75;0.90;;;9.50;64.80;;;;;;20828151;28;20034;-82
2022/02/01 12:15:14;;;;;;;2.75;0.90;;;9.60;64.30;;;;;;20830924;28;20438;-79
2022/02/01 12:25:16;;;;;;;1.48;0.63;;;9.70;64.10;;;;;;20868136;28;20079;-79
2022/02/01 12:35:42;;;;;;;0.68;0.40;;;9.70;64.00;;;;;;20838839;28;20049;-79
2022/02/01 12:45:55;;;;;;;2.05;0.65;;;9.50;64.20;;;;;;20863893;28;20111;-79
2022/02/01 12:55:55;;;;;;;0.80;0.68;;;9.30;64.70;;;;;;20909844;28;20483;-79
2022/02/01 13:05:57;;;;;;;0.80;0.53;;;9.10;65.20;;;;;;20901528;28;20033;-80
2022/02/01 13:26:05;;;;;;;1.00;0.50;;;8.90;66.20;;;;;;20900499;28;20059;-78
2022/02/01 13:36:10;;;;;;;0.75;0.50;;;8.80;66.70;;;;;;20904245;28;20051;-77
2022/02/01 13:46:20;;;;;;;0.57;0.43;;;8.70;67.10;;;;;;20900984;28;20040;-76
2022/02/01 13:56:28;;;;;;;2.55;0.90;;;8.70;67.40;;;;;;20901543;28;20391;-83
2022/02/01 14:06:51;;;;;;;1.00;0.52;;;8.70;67.80;;;;;;20830862;28;20038;-83
2022/02/01 14:27:44;;;;;;;1.80;0.50;;;8.60;68.40;;;;;;20825651;28;20368;-80
2022/02/01 14:38:00;;;;;;;0.55;0.50;;;8.60;68.70;;;;;;20827815;28;20042;-82
2022/02/01 14:48:01;;;;;;;0.75;0.50;;;8.50;69.10;;;;;;20873310;28;20043;-82
2022/02/01 15:18:27;;;;;;;0.30;0.30;;;8.50;70.10;;;;;;20831946;28;20052;-77
2022/02/01 15:28:29;;;;;;;0.95;0.60;;;8.50;70.40;;;;;;20851208;28;20042;-77
2022/02/01 15:38:38;;;;;;;0.60;0.30;;;8.50;70.60;;;;;;20810259;28;20051;-78
2022/02/01 15:58:51;;;;;;;0.50;0.38;;;8.60;70.70;;;;;;20797446;28;20472;-79
2022/02/01 16:09:03;;;;;;;0.50;0.40;;;8.80;70.40;;;;;;20795190;28;20032;-78
2022/02/01 16:19:06;;;;;;;2.33;0.60;;;9.10;69.90;;;;;;20779293;28;20049;-80
2022/02/01 16:29:07;;;;;;;1.98;0.65;;;9.40;70.00;;;;;;20792737;28;20037;-79
2022/02/01 16:39:10;;;;;;;1.33;0.50;;;9.50;69.10;;;;;;20774363;28;20141;-81
2022/02/01 16:49:15;;;;;;;1.58;0.55;;;9.50;69.20;;;;;;20804281;28;20090;-79
2022/02/01 16:59:25;;;;;;;5.03;1.20;;;9.50;69.40;;;;;;20828481;28;20053;-76
2022/02/01 17:09:34;;;;;;;3.13;1.02;;;9.40;69.60;;;;;;20821508;28;20368;-83
2022/02/01 17:29:57;;;;;;;3.97;1.23;;;9.30;70.40;;;;;;20911606;28;20558;-83
2022/02/01 17:40:02;;;;;;;7.40;1.13;;;9.20;71.00;;;;;;20923362;28;20110;-80
2022/02/01 17:50:05;;;;;;;4.68;1.52;;;9.00;71.70;;;;;;20908151;28;20455;-82
2022/02/01 18:00:07;;;;;;;5.05;1.10;;;8.90;72.80;;;;;;20887776;28;20087;-82
2022/02/01 18:10:14;;;;;;;3.95;0.95;;;8.90;72.50;;;;;;20894372;28;20045;-85
2022/02/01 18:20:19;;;;;;;8.43;1.13;;;8.80;72.90;;;;;;20933498;28;20521;-83
2022/02/01 18:30:22;;;;;;;6.65;1.65;;;8.70;73.30;;;;;;20905536;28;20029;-77
2022/02/01 18:40:24;;;;;;;8.32;1.77;;;8.80;73.50;;;;;;20894253;28;20040;-78
2022/02/01 19:21:28;;;;;;;10.65;2.20;;;8.60;73.60;;;;;;20905879;28;20040;-77
2022/02/01 19:31:35;;;;;;;12.55;2.03;;;8.60;73.60;;;;;;20850091;28;20045;-78
2022/02/01 19:41:36;;;;;;;4.78;1.85;;;8.60;73.70;;;;;;20821048;28;20037;-78
2022/02/01 19:51:37;;;;;;;7.10;2.17;;;8.60;73.90;;;;;;20863902;28;20041;-78
2022/02/01 20:01:40;;;;;;;5.88;2.13;;;8.60;73.90;;;;;;20869382;28;20110;-77
2022/02/01 20:11:46;;;;;;;14.00;3.85;;;8.60;74.00;;;;;;20870344;28;20128;-79
2022/02/01 20:21:46;;;;;;;11.60;2.95;;;8.60;74.10;;;;;;20909355;28;20068;-78
2022/02/01 20:31:48;;;;;;;11.65;1.83;;;8.60;74.20;;;;;;20904979;28;20454;-80
2022/02/01 20:41:52;;;;;;;6.97;1.48;;;8.50;74.00;;;;;;20903277;28;20300;-79
2022/02/01 20:51:53;;;;;;;3.92;1.08;;;8.50;73.80;;;;;;20887853;28;20041;-78
2022/02/01 21:01:54;;;;;;;4.13;1.10;;;8.50;73.60;;;;;;20885875;28;20132;-79
2022/02/01 21:11:55;;;;;;;13.32;2.30;;;8.50;73.40;;;;;;20868360;28;20448;-79
2022/02/01 21:21:55;;;;;;;7.38;2.42;;;8.50;73.40;;;;;;20900712;28;20501;-77
2022/02/01 21:31:57;;;;;;;4.82;1.33;;;8.50;73.50;;;;;;20882795;28;20025;-80
2022/02/01 21:41:59;;;;;;;6.13;1.55;;;8.60;73.50;;;;;;20882034;28;20063;-80
2022/02/01 21:52:00;;;;;;;10.88;2.17;;;8.60;73.60;;;;;;20816556;28;20036;-81
2022/02/01 22:02:00;;;;;;;6.90;1.65;;;8.60;73.70;;;;;;20855881;28;20479;-80
2022/02/01 22:12:01;;;;;;;6.10;1.25;;;8.60;73.70;;;;;;20879119;28;20375;-80
2022/02/01 22:22:01;;;;;;;9.20;1.90;;;8.60;73.70;;;;;;20878616;28;20045;-80
2022/02/01 22:32:03;;;;;;;6.30;1.48;;;8.60;73.70;;;;;;20894308;28;20037;-80
2022/02/01 22:42:04;;;;;;;5.57;1.73;;;8.60;73.70;;;;;;20891899;28;20391;-80
2022/02/01 22:52:06;;;;;;;7.57;1.55;;;8.60;73.80;;;;;;20875507;28;20087;-79
2022/02/01 23:02:10;;;;;;;7.10;1.98;;;8.60;73.70;;;;;;20876158;28;20087;-79
2022/02/01 23:22:32;;;;;;;10.55;1.92;;;8.60;73.70;;;;;;20893490;28;20037;-78
2022/02/01 23:32:43;;;;;;;7.07;1.88;;;8.60;73.60;;;;;;20890747;28;20087;-79
2022/02/01 23:43:04;;;;;;;10.90;2.15;;;8.60;73.60;;;;;;20860053;28;20033;-79
2022/02/01 23:53:07;;;;;;;8.90;1.70;;;8.60;73.60;;;;;;20895623;28;20043;-80
